createdAt,value
2023-05-25T00:01:11.839Z,99313.56
2023-05-25T00:03:40.477Z,99313.69
2023-05-25T00:06:07.535Z,99298.97
2023-05-25T00:08:34.177Z,99292.09
2023-05-25T00:11:00.886Z,99313.59
2023-05-25T00:13:27.560Z,99317.97
2023-05-25T00:15:54.290Z,99316.34
2023-05-25T00:18:20.914Z,99306.91
2023-05-25T00:20:47.839Z,99301.75
2023-05-25T00:23:14.709Z,99294.81
2023-05-25T00:25:41.350Z,99293.03
2023-05-25T00:28:07.959Z,99301.72
2023-05-25T00:30:34.942Z,99300.88
2023-05-25T00:33:01.886Z,99313.84
2023-05-25T00:35:28.870Z,99307.84
2023-05-25T00:37:55.969Z,99304.38
2023-05-25T00:40:22.719Z,99306.13
2023-05-25T00:42:49.289Z,99310.41
2023-05-25T00:45:15.935Z,99315.53
2023-05-25T00:47:43.358Z,99321.63
2023-05-25T00:50:14.940Z,99320.78
2023-05-25T00:52:41.699Z,99316.44
2023-05-25T00:55:11.702Z,99318.16
2023-05-25T00:57:41.432Z,99338.00
2023-05-25T01:00:11.477Z,99337.13
2023-05-25T01:02:40.230Z,99331.09
2023-05-25T01:05:10.826Z,99331.09
2023-05-25T01:07:39.237Z,99337.97
2023-05-25T01:10:09.707Z,99347.50
2023-05-25T01:12:38.590Z,99341.47
2023-05-25T01:15:06.681Z,99341.47
2023-05-25T01:17:38.034Z,99345.75
2023-05-25T01:20:11.147Z,99344.03
2023-05-25T01:22:41.048Z,99344.91
2023-05-25T01:25:15.018Z,99344.06
2023-05-25T01:27:49.079Z,99338.88
2023-05-25T01:30:18.107Z,99339.75
2023-05-25T01:32:45.738Z,99332.88
2023-05-25T01:35:14.596Z,99331.13
2023-05-25T01:37:48.820Z,99314.78
2023-05-25T01:40:15.769Z,99303.56
2023-05-25T01:42:42.568Z,99306.19
2023-05-25T01:45:11.692Z,99313.91
2023-05-25T01:47:53.484Z,99309.59
2023-05-25T01:50:44.951Z,99322.53
2023-05-25T01:53:18.498Z,99322.53
2023-05-25T01:55:59.624Z,99323.31
2023-05-25T01:58:28.426Z,99319.84
2023-05-25T02:00:56.683Z,99306.06
2023-05-25T02:03:23.561Z,99306.03
2023-05-25T02:05:50.311Z,99310.38
2023-05-25T02:08:16.915Z,99312.94
2023-05-25T02:10:43.497Z,99300.00
2023-05-25T02:13:10.732Z,99304.31
2023-05-25T02:15:37.328Z,99294.84
2023-05-25T02:18:05.884Z,99303.41
2023-05-25T02:20:32.715Z,99306.00
2023-05-25T02:22:59.357Z,99299.13
2023-05-25T02:25:26.156Z,99299.94
2023-05-25T02:27:52.908Z,99304.25
2023-05-25T02:30:19.859Z,99300.84
2023-05-25T02:32:46.686Z,99294.78
2023-05-25T02:35:13.353Z,99293.06
2023-05-25T02:37:40.070Z,99296.50
2023-05-25T02:40:07.239Z,99300.78
2023-05-25T02:42:33.799Z,99304.19
2023-05-25T02:45:00.493Z,99297.28
2023-05-25T02:47:27.144Z,99302.47
2023-05-25T02:49:53.733Z,99298.16
2023-05-25T02:52:21.251Z,99298.13
2023-05-25T02:54:47.934Z,99294.66
2023-05-25T02:57:14.517Z,99291.34
2023-05-25T02:59:41.173Z,99299.03
2023-05-25T03:02:07.738Z,99287.84
2023-05-25T03:04:37.873Z,99292.16
2023-05-25T03:07:04.772Z,99286.06
2023-05-25T03:09:31.794Z,99292.09
2023-05-25T03:11:58.436Z,99292.00
2023-05-25T03:14:24.972Z,99288.50
2023-05-25T03:16:53.783Z,99287.69
2023-05-25T03:19:20.998Z,99279.94
2023-05-25T03:21:47.657Z,99272.22
2023-05-25T03:24:14.573Z,99270.50
2023-05-25T03:26:41.343Z,99272.22
2023-05-25T03:29:08.036Z,99271.22
2023-05-25T03:31:34.627Z,99273.91
2023-05-25T03:34:01.194Z,99273.09
2023-05-25T03:36:27.755Z,99278.19
2023-05-25T03:38:54.736Z,99282.41
2023-05-25T03:41:21.885Z,99283.34
2023-05-25T03:43:48.449Z,99282.47
2023-05-25T03:46:15.616Z,99282.41
2023-05-25T03:48:42.168Z,99284.09
2023-05-25T03:51:08.689Z,99293.50
2023-05-25T03:53:35.192Z,99291.00
2023-05-25T03:56:01.769Z,99278.94
2023-05-25T03:58:28.296Z,99284.09
2023-05-25T04:00:56.243Z,99273.75
2023-05-25T04:03:23.012Z,99274.59
2023-05-25T04:05:50.101Z,99268.53
2023-05-25T04:08:20.459Z,99268.56
2023-05-25T04:10:47.872Z,99272.81
2023-05-25T04:13:14.588Z,99271.13
2023-05-25T04:15:41.237Z,99269.50
2023-05-25T04:18:07.956Z,99281.44
2023-05-25T04:20:34.543Z,99279.75
2023-05-25T04:23:01.373Z,99278.03
2023-05-25T04:25:29.581Z,99284.03
2023-05-25T04:27:56.829Z,99283.16
2023-05-25T04:30:24.002Z,99280.63
2023-05-25T04:32:50.659Z,99277.94
2023-05-25T04:35:20.903Z,99268.63
2023-05-25T04:37:48.571Z,99282.28
2023-05-25T04:40:15.229Z,99284.75
2023-05-25T04:42:41.977Z,99288.22
2023-05-25T04:45:10.476Z,99286.47
2023-05-25T04:47:37.797Z,99283.88
2023-05-25T04:50:04.606Z,99293.19
2023-05-25T04:52:31.240Z,99282.94
2023-05-25T04:54:57.818Z,99293.25
2023-05-25T04:57:24.426Z,99293.19
2023-05-25T04:59:51.107Z,99296.59
2023-05-25T05:02:17.727Z,99286.31
2023-05-25T05:04:44.381Z,99293.28
2023-05-25T05:07:11.024Z,99294.16
2023-05-25T05:09:37.771Z,99297.56
2023-05-25T05:12:04.609Z,99294.19
2023-05-25T05:14:31.290Z,99298.56
2023-05-25T05:16:57.990Z,99306.16
2023-05-25T05:19:24.689Z,99298.41
2023-05-25T05:21:51.698Z,99303.56
2023-05-25T05:24:18.282Z,99300.13
2023-05-25T05:26:57.343Z,99295.16
2023-05-25T05:29:26.964Z,99300.38
2023-05-25T05:31:54.954Z,99309.75
2023-05-25T05:34:22.497Z,99310.66
2023-05-25T05:36:56.743Z,99302.94
2023-05-25T05:39:24.968Z,99300.38
2023-05-25T05:41:52.504Z,99306.38
2023-05-25T05:44:21.387Z,99303.78
2023-05-25T05:46:48.931Z,99307.91
2023-05-25T05:49:15.792Z,99307.19
2023-05-25T05:51:42.375Z,99319.16
2023-05-25T05:54:08.994Z,99320.03
2023-05-25T05:56:35.617Z,99323.53
2023-05-25T05:59:02.205Z,99327.91
2023-05-25T06:01:28.808Z,99333.03
2023-05-25T06:03:56.119Z,99332.13
2023-05-25T06:06:23.509Z,99329.56
2023-05-25T06:08:51.177Z,99336.44
2023-05-25T06:11:17.887Z,99347.63
2023-05-25T06:13:45.504Z,99354.66
2023-05-25T06:16:13.368Z,99366.63
2023-05-25T06:18:39.998Z,99393.34
2023-05-25T06:21:06.649Z,99392.44
2023-05-25T06:23:33.326Z,99414.03
2023-05-25T06:26:06.440Z,99433.00
2023-05-25T06:28:33.227Z,99467.41
2023-05-25T06:30:59.806Z,99482.81
2023-05-25T06:33:26.936Z,99483.66
2023-05-25T06:35:58.272Z,99479.25
2023-05-25T06:38:24.987Z,99486.22
2023-05-25T06:40:51.572Z,99500.09
2023-05-25T06:43:18.435Z,99497.53
2023-05-25T06:45:45.336Z,99514.03
2023-05-25T06:48:12.200Z,99545.06
2023-05-25T06:50:40.124Z,99572.56
2023-05-25T06:53:07.537Z,99586.38
2023-05-25T06:55:34.265Z,99612.28
2023-05-25T06:58:00.950Z,99645.03
2023-05-25T07:00:28.194Z,99683.78
2023-05-25T07:02:54.914Z,99711.19
2023-05-25T07:05:22.097Z,99710.22
2023-05-25T07:07:48.767Z,99715.34
2023-05-25T07:10:15.323Z,99713.66
2023-05-25T07:12:41.926Z,99725.00
2023-05-25T07:15:09.324Z,99737.03
2023-05-25T07:17:36.645Z,99741.50
2023-05-25T07:20:04.859Z,99750.84
2023-05-25T07:22:31.576Z,99751.72
2023-05-25T07:24:59.040Z,99752.50
2023-05-25T07:27:25.634Z,99762.66
2023-05-25T07:29:52.287Z,99765.28
2023-05-25T07:32:18.875Z,99775.59
2023-05-25T07:34:45.600Z,99775.75
2023-05-25T07:37:12.206Z,99778.44
2023-05-25T07:39:40.552Z,99775.63
2023-05-25T07:42:07.291Z,99777.53
2023-05-25T07:44:34.132Z,99777.63
2023-05-25T07:47:01.159Z,99779.44
2023-05-25T07:49:28.102Z,99795.66
2023-05-25T07:51:54.632Z,99792.41
2023-05-25T07:54:21.282Z,99799.41
2023-05-25T07:56:47.974Z,99803.78
2023-05-25T07:59:14.625Z,99807.28
2023-05-25T08:01:41.188Z,99810.66
2023-05-25T08:04:07.865Z,99807.19
2023-05-25T08:06:34.659Z,99816.75
2023-05-25T08:09:03.090Z,99815.03
2023-05-25T08:11:31.324Z,99818.44
2023-05-25T08:13:57.943Z,99826.25
2023-05-25T08:16:24.608Z,99809.97
2023-05-25T08:18:52.602Z,99794.59
2023-05-25T08:21:19.309Z,99799.88
2023-05-25T08:23:45.958Z,99811.09
2023-05-25T08:28:42.364Z,99809.31
2023-05-25T08:31:09.006Z,99806.69
2023-05-25T08:33:35.826Z,99811.00
2023-05-25T08:36:02.478Z,99812.75
2023-05-25T08:38:29.288Z,99807.59
2023-05-25T08:41:07.273Z,99819.66
2023-05-25T08:43:34.820Z,99817.13
2023-05-25T08:46:05.811Z,99804.31
2023-05-25T08:48:41.753Z,99811.28
2023-05-25T08:51:11.528Z,99809.56
2023-05-25T08:53:41.254Z,99809.63
2023-05-25T08:56:18.929Z,99811.41
2023-05-25T08:58:52.938Z,99806.31
2023-05-25T09:01:22.587Z,99810.72
2023-05-25T09:03:50.357Z,99817.56
2023-05-25T09:06:17.736Z,99831.44
2023-05-25T09:08:45.045Z,99817.56
2023-05-25T09:11:16.204Z,99808.94
2023-05-25T09:13:43.254Z,99814.13
2023-05-25T09:16:11.155Z,99820.22
2023-05-25T09:18:37.807Z,99818.44
2023-05-25T09:21:05.189Z,99827.06
2023-05-25T09:23:32.413Z,99825.38
2023-05-25T09:25:59.686Z,99818.41
2023-05-25T09:28:27.682Z,99817.59
2023-05-25T09:30:54.727Z,99821.06
2023-05-25T09:33:21.588Z,99817.63
2023-05-25T09:35:48.829Z,99818.50
2023-05-25T09:38:17.141Z,99804.66
2023-05-25T09:40:45.037Z,99812.47
2023-05-25T09:43:15.761Z,99807.28
2023-05-25T09:45:48.974Z,99795.16
2023-05-25T09:48:15.937Z,99787.34
2023-05-25T09:50:43.489Z,99792.56
2023-05-25T09:53:11.861Z,99797.69
2023-05-25T09:55:52.203Z,99796.91
2023-05-25T09:58:24.287Z,99797.69
2023-05-25T10:00:55.513Z,99795.09
2023-05-25T10:03:22.533Z,99797.66
2023-05-25T10:05:49.888Z,99806.34
2023-05-25T10:08:20.075Z,99795.94
2023-05-25T10:10:50.062Z,99793.38
2023-05-25T10:13:24.521Z,99806.28
2023-05-25T10:15:54.627Z,99811.41
2023-05-25T10:18:26.829Z,99803.50
2023-05-25T10:21:02.774Z,99816.56
2023-05-25T10:23:42.068Z,99805.41
2023-05-25T10:26:10.257Z,99807.09
2023-05-25T10:28:38.033Z,99791.41
2023-05-25T10:31:05.904Z,99808.50
2023-05-25T10:33:33.434Z,99813.09
2023-05-25T10:36:10.231Z,99819.06
2023-05-25T10:38:40.068Z,99813.22
2023-05-25T10:41:09.933Z,99816.75
2023-05-25T10:43:38.092Z,99817.53
2023-05-25T10:46:06.332Z,99809.59
2023-05-25T10:48:40.531Z,99815.53
2023-05-25T10:51:09.087Z,99808.44
2023-05-25T10:53:37.801Z,99811.81
2023-05-25T10:56:06.751Z,99815.78
2023-05-25T10:58:34.389Z,99819.31
2023-05-25T11:01:02.747Z,99823.59
2023-05-25T11:03:44.985Z,99823.63
2023-05-25T11:06:16.245Z,99832.16
2023-05-25T11:08:54.410Z,99824.19
2023-05-25T11:11:21.308Z,99829.25
2023-05-25T11:13:49.740Z,99835.63
2023-05-25T11:16:20.897Z,99825.84
2023-05-25T11:18:58.595Z,99825.78
2023-05-25T11:21:28.505Z,99821.44
2023-05-25T11:23:57.162Z,99824.97
2023-05-25T11:26:26.562Z,99834.63
2023-05-25T11:28:56.779Z,99837.16
2023-05-25T11:31:39.122Z,99834.59
2023-05-25T11:34:09.488Z,99832.78
2023-05-25T11:36:36.495Z,99822.44
2023-05-25T11:39:11.572Z,99818.03
2023-05-25T11:41:49.698Z,99825.69
2023-05-25T11:44:33.466Z,99813.28
2023-05-25T11:47:18.979Z,99821.88
2023-05-25T11:49:47.235Z,99817.56
2023-05-25T11:52:18.882Z,99814.63
2023-05-25T11:54:46.422Z,99821.34
2023-05-25T11:57:18.237Z,99815.59
2023-05-25T11:59:52.696Z,99822.56
2023-05-25T12:02:20.630Z,99815.59
2023-05-25T12:04:58.442Z,99813.63
2023-05-25T12:07:26.381Z,99816.13
2023-05-25T12:10:15.256Z,99807.22
2023-05-25T12:12:43.364Z,99817.56
2023-05-25T12:15:22.904Z,99808.09
2023-05-25T12:17:51.632Z,99806.06
2023-05-25T12:20:19.051Z,99804.50
2023-05-25T12:22:47.180Z,99800.22
2023-05-25T12:25:18.435Z,99804.31
2023-05-25T12:27:45.305Z,99796.69
2023-05-25T12:30:12.249Z,99789.50
2023-05-25T12:32:55.624Z,99786.91
2023-05-25T12:35:22.419Z,99796.50
2023-05-25T12:37:49.110Z,99796.22
2023-05-25T12:40:24.562Z,99797.19
2023-05-25T12:42:57.444Z,99795.47
2023-05-25T12:45:24.621Z,99791.97
2023-05-25T12:47:51.420Z,99795.56
2023-05-25T12:50:19.522Z,99801.81
2023-05-25T12:52:48.671Z,99793.09
2023-05-25T12:55:26.040Z,99779.19
2023-05-25T12:58:28.309Z,99791.84
2023-05-25T13:00:55.011Z,99779.78
2023-05-25T13:03:21.630Z,99779.03
2023-05-25T13:05:48.256Z,99778.03
2023-05-25T13:08:15.432Z,99777.16
2023-05-25T13:10:42.378Z,99778.09
2023-05-25T13:13:11.192Z,99784.31
2023-05-25T13:15:37.916Z,99778.34
2023-05-25T13:18:05.539Z,99777.19
2023-05-25T13:20:32.665Z,99784.81
2023-05-25T13:22:59.539Z,99781.22
2023-05-25T13:25:28.242Z,99775.50
2023-05-25T13:27:56.921Z,99784.88
2023-05-25T13:30:23.813Z,99781.22
2023-05-25T13:32:51.976Z,99781.53
2023-05-25T13:35:23.295Z,99783.06
2023-05-25T13:37:51.478Z,99780.50
2023-05-25T13:40:18.398Z,99781.31
2023-05-25T13:42:45.052Z,99779.66
2023-05-25T13:45:11.801Z,99779.75
2023-05-25T13:47:38.796Z,99784.72
2023-05-25T13:50:06.157Z,99775.22
2023-05-25T13:52:33.159Z,99777.69
2023-05-25T13:54:59.715Z,99778.19
2023-05-25T13:57:26.506Z,99777.78
2023-05-25T13:59:53.098Z,99782.00
2023-05-25T14:02:20.165Z,99778.50
2023-05-25T14:04:46.808Z,99771.50
2023-05-25T14:07:14.207Z,99777.81
2023-05-25T14:09:40.810Z,99769.41
2023-05-25T14:12:07.825Z,99761.66
2023-05-25T14:14:34.457Z,99765.88
2023-05-25T14:17:01.413Z,99775.97
2023-05-25T14:19:28.651Z,99776.09
2023-05-25T14:24:25.032Z,99765.94
2023-05-25T14:26:51.608Z,99768.53
2023-05-25T14:29:18.200Z,99767.41
2023-05-25T14:31:44.895Z,99773.38
2023-05-25T14:34:11.491Z,99772.41
2023-05-25T14:36:38.263Z,99766.81
2023-05-25T14:39:05.308Z,99781.31
2023-05-25T14:41:31.872Z,99788.72
2023-05-25T14:43:58.404Z,99791.22
2023-05-25T14:46:25.448Z,99789.56
2023-05-25T14:48:52.061Z,99781.00
2023-05-25T14:51:18.656Z,99777.44
2023-05-25T14:53:45.990Z,99778.16
2023-05-25T14:56:12.602Z,99780.56
2023-05-25T14:58:39.214Z,99768.53
2023-05-25T15:01:06.018Z,99765.75
2023-05-25T15:03:33.187Z,99773.34
2023-05-25T15:05:59.848Z,99770.78
2023-05-25T15:08:26.808Z,99763.78
2023-05-25T15:10:53.468Z,99761.81
2023-05-25T15:13:22.556Z,99768.44
2023-05-25T15:15:55.094Z,99775.31
2023-05-25T15:18:21.681Z,99774.03
2023-05-25T15:20:48.414Z,99786.34
2023-05-25T15:23:15.074Z,99792.53
2023-05-25T15:25:41.658Z,99789.88
2023-05-25T15:28:08.352Z,99797.38
2023-05-25T15:30:34.922Z,99802.22
2023-05-25T15:33:02.023Z,99800.38
2023-05-25T15:35:32.312Z,99800.09
2023-05-25T15:37:59.793Z,99806.22
2023-05-25T15:40:27.596Z,99814.78
2023-05-25T15:42:54.219Z,99811.72
2023-05-25T15:45:20.807Z,99810.19
2023-05-25T15:47:47.558Z,99816.97
2023-05-25T15:50:14.282Z,99819.97
2023-05-25T15:52:41.586Z,99824.56
2023-05-25T15:55:08.862Z,99822.50
2023-05-25T15:57:35.529Z,99826.53
2023-05-25T16:00:02.080Z,99833.53
2023-05-25T16:02:29.033Z,99826.06
2023-05-25T16:04:55.587Z,99832.16
2023-05-25T16:07:22.157Z,99831.34
2023-05-25T16:09:48.780Z,99827.94
2023-05-25T16:12:15.768Z,99838.63
2023-05-25T16:14:42.389Z,99838.28
2023-05-25T16:17:09.064Z,99844.22
2023-05-25T16:19:36.053Z,99839.66
2023-05-25T16:22:02.616Z,99839.69
2023-05-25T16:24:29.776Z,99840.16
2023-05-25T16:26:57.663Z,99848.09
2023-05-25T16:29:24.340Z,99849.38
2023-05-25T16:31:50.926Z,99852.81
2023-05-25T16:34:17.536Z,99847.75
2023-05-25T16:36:44.137Z,99855.78
2023-05-25T16:39:11.779Z,99861.19
2023-05-25T16:41:38.425Z,99857.72
2023-05-25T16:44:05.029Z,99864.91
2023-05-25T16:46:31.985Z,99875.38
2023-05-25T16:48:58.726Z,99874.94
2023-05-25T16:51:25.900Z,99876.13
2023-05-25T16:53:53.958Z,99877.34
2023-05-25T16:56:21.525Z,99887.13
2023-05-25T16:58:48.203Z,99898.03
2023-05-25T17:01:14.801Z,99912.22
2023-05-25T17:03:41.495Z,99916.19
2023-05-25T17:06:08.684Z,99928.69
2023-05-25T17:08:36.454Z,99928.19
2023-05-25T17:11:03.033Z,99935.91
2023-05-25T17:13:29.608Z,99933.28
2023-05-25T17:15:56.209Z,99937.75
2023-05-25T17:18:22.934Z,99937.22
2023-05-25T17:20:49.594Z,99942.41
2023-05-25T17:23:16.917Z,99945.88
2023-05-25T17:25:44.933Z,99948.34
2023-05-25T17:28:11.760Z,99936.09
2023-05-25T17:30:38.365Z,99938.75
2023-05-25T17:33:05.020Z,99943.84
2023-05-25T17:35:31.650Z,99951.13
2023-05-25T17:37:58.235Z,99951.31
2023-05-25T17:40:24.832Z,99953.63
2023-05-25T17:42:51.540Z,99955.84
2023-05-25T17:45:18.244Z,99964.00
2023-05-25T17:47:44.852Z,99965.03
2023-05-25T17:50:11.472Z,99964.19
2023-05-25T17:52:38.085Z,99971.31
2023-05-25T17:55:06.058Z,99978.38
2023-05-25T17:57:32.725Z,99973.53
2023-05-25T17:59:59.335Z,99984.00
2023-05-25T18:02:27.245Z,99985.75
2023-05-25T18:04:53.913Z,99990.94
2023-05-25T18:07:22.176Z,99994.53
2023-05-25T18:09:48.764Z,99987.75
2023-05-25T18:12:15.398Z,99986.00
2023-05-25T18:14:41.965Z,99992.03
2023-05-25T18:17:08.874Z,99995.50
2023-05-25T18:19:36.229Z,99994.66
2023-05-25T18:22:02.813Z,100004.16
2023-05-25T18:24:29.388Z,100008.59
2023-05-25T18:26:56.000Z,100010.31
2023-05-25T18:29:22.589Z,100010.28
2023-05-25T18:31:49.276Z,100008.56
2023-05-25T18:34:16.083Z,100007.72
2023-05-25T18:36:42.736Z,100015.59
2023-05-25T18:39:09.443Z,100025.13
2023-05-25T18:41:36.428Z,100034.63
2023-05-25T18:44:03.008Z,100035.50
2023-05-25T18:46:29.978Z,100028.59
2023-05-25T18:48:56.586Z,100034.63
2023-05-25T18:51:25.850Z,100031.19
2023-05-25T18:53:52.718Z,100031.19
2023-05-25T18:56:19.568Z,100021.66
2023-05-25T18:58:47.073Z,100032.06
2023-05-25T19:01:14.432Z,100041.56
2023-05-25T19:03:41.311Z,100036.31
2023-05-25T19:06:08.742Z,100037.19
2023-05-25T19:08:35.374Z,100033.69
2023-05-25T19:11:01.948Z,100030.25
2023-05-25T19:13:28.633Z,100038.94
2023-05-25T19:15:55.267Z,100039.81
2023-05-25T19:18:21.923Z,100049.28
2023-05-25T19:20:48.795Z,100051.00
2023-05-25T19:23:15.627Z,100051.88
2023-05-25T19:25:42.224Z,100056.19
2023-05-25T19:28:08.886Z,100051.03
2023-05-25T19:30:35.574Z,100051.88
2023-05-25T19:33:02.292Z,100049.28
2023-05-25T19:35:28.945Z,100050.06
2023-05-25T19:37:55.507Z,100055.28
2023-05-25T19:40:22.312Z,100055.28
2023-05-25T19:42:48.898Z,100055.34
2023-05-25T19:45:19.144Z,100055.28
2023-05-25T19:47:46.941Z,100058.63
2023-05-25T19:50:14.033Z,100066.31
2023-05-25T19:52:41.757Z,100068.91
2023-05-25T19:55:08.491Z,100076.63
2023-05-25T19:57:35.170Z,100076.56
2023-05-25T20:00:02.002Z,100081.78
2023-05-25T20:02:28.734Z,100077.56
2023-05-25T20:04:55.430Z,100079.16
2023-05-25T20:07:22.144Z,100081.88
2023-05-25T20:09:48.744Z,100091.38
2023-05-25T20:12:16.389Z,100092.25
2023-05-25T20:14:43.663Z,100100.06
2023-05-25T20:17:10.333Z,100096.66
2023-05-25T20:19:36.982Z,100104.44
2023-05-25T20:22:04.397Z,100103.56
2023-05-25T20:24:32.369Z,100110.50
2023-05-25T20:26:59.892Z,100104.38
2023-05-25T20:29:26.572Z,100106.06
2023-05-25T20:31:53.727Z,100095.72
2023-05-25T20:34:20.716Z,100104.31
2023-05-25T20:36:47.284Z,100101.78
2023-05-25T20:39:14.319Z,100100.97
2023-05-25T20:41:40.951Z,100100.09
2023-05-25T20:44:08.835Z,100100.09
2023-05-25T20:46:35.689Z,100102.66
2023-05-25T20:49:03.525Z,100100.06
2023-05-25T20:51:31.189Z,100107.81
2023-05-25T20:53:57.821Z,100118.19
2023-05-25T20:56:26.669Z,100118.25
2023-05-25T20:58:53.514Z,100116.50
2023-05-25T21:01:20.201Z,100118.22
2023-05-25T21:03:46.921Z,100119.78
2023-05-25T21:06:13.633Z,100117.00
2023-05-25T21:08:40.184Z,100119.59
2023-05-25T21:11:06.731Z,100135.25
2023-05-25T21:13:33.337Z,100129.19
2023-05-25T21:16:00.054Z,100130.06
2023-05-25T21:18:26.767Z,100118.94
2023-05-25T21:20:53.362Z,100137.06
2023-05-25T21:23:19.897Z,100124.81
2023-05-25T21:25:47.206Z,100128.28
2023-05-25T21:28:14.284Z,100138.53
2023-05-25T21:30:40.892Z,100130.78
2023-05-25T21:33:07.631Z,100137.63
2023-05-25T21:35:34.300Z,100131.63
2023-05-25T21:38:00.923Z,100132.44
2023-05-25T21:40:27.503Z,100132.50
2023-05-25T21:42:54.366Z,100132.50
2023-05-25T21:45:21.245Z,100129.84
2023-05-25T21:47:48.782Z,100131.41
2023-05-25T21:50:15.833Z,100137.97
2023-05-25T21:52:42.523Z,100133.72
2023-05-25T21:55:09.304Z,100129.63
2023-05-25T21:57:36.430Z,100130.47
2023-05-25T22:00:03.950Z,100113.00
2023-05-25T22:02:30.649Z,100119.00
2023-05-25T22:04:57.355Z,100114.81
2023-05-25T22:07:24.164Z,100119.13
2023-05-25T22:09:50.903Z,100119.13
2023-05-25T22:12:17.517Z,100119.03
2023-05-25T22:14:44.078Z,100116.38
2023-05-25T22:17:10.701Z,100114.63
2023-05-25T22:19:37.366Z,100113.88
2023-05-25T22:22:04.162Z,100112.88
2023-05-25T22:24:30.856Z,100109.50
2023-05-25T22:26:57.430Z,100121.53
2023-05-25T22:29:24.013Z,100110.31
2023-05-25T22:31:51.189Z,100107.72
2023-05-25T22:34:17.806Z,100108.59
2023-05-25T22:36:44.348Z,100108.59
2023-05-25T22:39:11.036Z,100101.69
2023-05-25T22:41:37.666Z,100106.00
2023-05-25T22:44:04.257Z,100105.03
2023-05-25T22:46:30.922Z,100099.00
2023-05-25T22:48:57.581Z,100092.16
2023-05-25T22:51:24.160Z,100099.13
2023-05-25T22:53:51.286Z,100088.81
2023-05-25T22:56:17.969Z,100087.91
2023-05-25T22:58:44.533Z,100089.53
2023-05-25T23:01:11.096Z,100092.13
2023-05-25T23:03:37.770Z,100082.66
2023-05-25T23:06:04.531Z,100082.66
2023-05-25T23:08:31.250Z,100079.97
2023-05-25T23:10:57.832Z,100076.50
2023-05-25T23:13:24.538Z,100068.72
2023-05-25T23:15:51.273Z,100071.31
2023-05-25T23:18:17.931Z,100059.25
2023-05-25T23:20:45.022Z,100056.59
2023-05-25T23:23:12.252Z,100055.75
2023-05-25T23:25:38.858Z,100064.34
2023-05-25T23:28:05.648Z,100066.03
2023-05-25T23:30:32.350Z,100065.13
2023-05-25T23:33:00.138Z,100062.63
2023-05-25T23:35:27.528Z,100064.34
2023-05-25T23:37:54.973Z,100061.75
2023-05-25T23:40:21.583Z,100058.31
2023-05-25T23:42:48.157Z,100048.84
2023-05-25T23:45:14.777Z,100047.13
2023-05-25T23:47:41.353Z,100031.41
2023-05-25T23:50:08.245Z,100016.72
2023-05-25T23:52:35.045Z,100002.94
2023-05-25T23:55:01.755Z,100010.78
2023-05-25T23:57:28.327Z,100008.19
2023-05-25T23:59:55.251Z,100009.00
